Middlebury, Vermont
Current Conditions -  °F | °C
As of 1:15 PM on Monday 22 Dec 2014 (Local Time) from K6B0 Reporting Station
Overcast Overcast  
Wind Chill: 31°   Ceiling: 4000
Heat Index: 31°   Visibility: 10mi
Dew Point: 26°   Wind: 3mph
Humidity: 80%   Direction: 330°NNW
Pressure: 30.3"   Gusts: NA
Location:  44.02°N, 73.17°W
Report Text: K6B0 221815Z AUTO 33003KT 10SM OVC040 00/M04 A3030 RMK AO2 T10051036
Loading
Personal Weather Stations






























Interactive Weather Map New forecast layout! Learn more

10-Day Weather Forecast

Advertisements
Track Severe Weather on mobile